Time;durP1;ratioP1;P1;durP2;ratioP2;P2;SDS_P1;SDS_P2;PMS_P1;PMS_P2;Temp;Humidity;BMP_temperature;BMP_pressure;BME280_temperature;BME280_humidity;BME280_pressure;Samples;Min_cycle;Max_cycle;Signal;HPM_P1;HPM_P2
2022/08/06 00:01:07;;;;;;;3.38;0.50;;;12.80;99.90;;;;;;6184715;23;20020;-82
2022/08/06 00:03:33;;;;;;;7.85;0.70;;;12.70;99.90;;;;;;6185477;23;20021;-82
2022/08/06 00:05:58;;;;;;;5.57;0.85;;;12.70;99.90;;;;;;6182911;23;20013;-81
2022/08/06 00:08:24;;;;;;;2.05;0.60;;;12.50;99.90;;;;;;6157084;23;20049;-81
2022/08/06 00:10:49;;;;;;;3.40;1.08;;;12.40;99.90;;;;;;6181879;23;20017;-82
2022/08/06 00:13:15;;;;;;;2.40;0.70;;;12.30;99.90;;;;;;6183239;23;20433;-82
2022/08/06 00:15:41;;;;;;;2.83;0.63;;;12.20;99.90;;;;;;6156671;23;20016;-82
2022/08/06 00:18:06;;;;;;;2.70;0.50;;;12.00;99.90;;;;;;6183084;23;20461;-82
2022/08/06 00:20:32;;;;;;;5.57;0.63;;;11.90;99.90;;;;;;6180485;23;20021;-82
2022/08/06 00:22:59;;;;;;;2.80;0.50;;;11.70;99.90;;;;;;6184465;23;20013;-82
2022/08/06 00:25:25;;;;;;;4.38;1.20;;;11.70;99.90;;;;;;6155508;23;20074;-82
2022/08/06 00:27:50;;;;;;;2.75;0.77;;;11.70;99.90;;;;;;6184779;23;20037;-82
2022/08/06 00:30:16;;;;;;;2.00;0.60;;;11.60;99.90;;;;;;6181698;23;20025;-82
2022/08/06 00:32:41;;;;;;;2.15;0.40;;;11.60;99.90;;;;;;6157579;23;20027;-82
2022/08/06 00:35:07;;;;;;;4.65;0.60;;;11.60;99.90;;;;;;6181248;23;20024;-81
2022/08/06 00:37:32;;;;;;;3.60;0.95;;;11.50;99.90;;;;;;6183911;23;20021;-82
2022/08/06 00:39:59;;;;;;;0.93;0.38;;;11.50;99.90;;;;;;6156659;23;20024;-82
2022/08/06 00:42:26;;;;;;;0.90;0.30;;;11.50;99.90;;;;;;6157511;23;20462;-82
2022/08/06 00:44:52;;;;;;;3.30;0.60;;;11.50;99.90;;;;;;6183696;23;20021;-82
2022/08/06 00:47:17;;;;;;;2.40;0.50;;;11.40;99.90;;;;;;6158126;23;20411;-81
2022/08/06 00:49:43;;;;;;;2.67;0.70;;;11.30;99.90;;;;;;6153822;23;20016;-82
2022/08/06 00:52:08;;;;;;;2.55;0.70;;;11.30;99.90;;;;;;6183802;23;20017;-82
2022/08/06 00:54:34;;;;;;;3.58;0.60;;;11.30;99.90;;;;;;6184071;23;20099;-82
2022/08/06 00:56:59;;;;;;;2.03;0.70;;;11.30;99.90;;;;;;6158830;23;20017;-80
2022/08/06 00:59:25;;;;;;;1.65;0.73;;;11.30;99.90;;;;;;6156348;23;20031;-81
2022/08/06 01:01:50;;;;;;;2.80;0.90;;;11.20;99.90;;;;;;6155345;23;20100;-81
2022/08/06 01:04:17;;;;;;;1.30;0.70;;;11.20;99.90;;;;;;6183639;23;20017;-80
2022/08/06 01:06:42;;;;;;;3.38;1.00;;;11.10;99.90;;;;;;6184271;23;20013;-82
2022/08/06 01:09:09;;;;;;;3.97;1.23;;;11.20;99.90;;;;;;6183558;23;20422;-82
2022/08/06 01:11:34;;;;;;;5.65;2.88;;;11.30;99.90;;;;;;6158409;23;20017;-81
2022/08/06 01:14:00;;;;;;;5.68;1.48;;;11.30;99.90;;;;;;6155808;23;20081;-82
2022/08/06 01:16:45;;;;;;;5.07;1.77;;;11.40;99.90;;;;;;6156955;23;20013;-82
2022/08/06 01:19:26;;;;;;;6.57;2.67;;;11.40;99.90;;;;;;6182998;23;20009;-81
2022/08/06 01:22:19;;;;;;;8.05;2.35;;;11.40;99.90;;;;;;6156936;23;20017;-81
2022/08/06 01:25:02;;;;;;;5.03;2.17;;;11.40;99.90;;;;;;6155501;23;20075;-82
2022/08/06 01:27:48;;;;;;;5.10;2.25;;;11.40;99.90;;;;;;6156432;23;20017;-82
2022/08/06 01:30:16;;;;;;;4.15;1.77;;;11.30;99.90;;;;;;6180811;23;20017;-82
2022/08/06 01:33:20;;;;;;;5.38;2.08;;;11.40;99.90;;;;;;6156529;23;20013;-82
2022/08/06 01:35:52;;;;;;;6.00;2.30;;;11.40;99.90;;;;;;6180984;23;20088;-81
2022/08/06 01:38:34;;;;;;;3.78;1.98;;;11.40;99.90;;;;;;6156338;23;20348;-81
2022/08/06 01:41:04;;;;;;;4.53;1.98;;;11.40;99.90;;;;;;6156333;23;20020;-80
2022/08/06 01:43:32;;;;;;;6.07;2.20;;;11.40;99.90;;;;;;6156373;23;20399;-81
2022/08/06 01:45:58;;;;;;;9.52;2.22;;;11.40;99.90;;;;;;6155574;23;20017;-82
2022/08/06 01:48:27;;;;;;;6.30;1.70;;;11.40;99.90;;;;;;6183887;23;20020;-81
2022/08/06 01:50:55;;;;;;;2.05;1.33;;;11.30;99.90;;;;;;6181925;23;20027;-81
2022/08/06 01:53:41;;;;;;;3.33;0.98;;;11.20;99.90;;;;;;6181631;23;20023;-82
2022/08/06 01:56:08;;;;;;;4.55;1.70;;;11.00;99.90;;;;;;6155890;23;20215;-81
2022/08/06 01:58:39;;;;;;;7.88;1.40;;;10.90;99.90;;;;;;6182990;23;20021;-82
2022/08/06 02:01:10;;;;;;;5.35;1.42;;;10.80;99.90;;;;;;6181046;23;20025;-81
2022/08/06 02:03:40;;;;;;;8.55;1.30;;;10.70;99.90;;;;;;6155976;23;20789;-81
2022/08/06 02:06:07;;;;;;;3.80;1.60;;;10.60;99.90;;;;;;6179512;23;20886;-82
2022/08/06 02:08:36;;;;;;;3.47;1.80;;;10.70;99.90;;;;;;6182008;23;20059;-81
2022/08/06 02:11:04;;;;;;;4.32;2.00;;;10.70;99.90;;;;;;6181298;23;20021;-82
2022/08/06 02:13:32;;;;;;;10.35;2.00;;;10.70;99.90;;;;;;6157246;23;20017;-82
2022/08/06 02:15:59;;;;;;;3.42;1.80;;;10.80;99.90;;;;;;6181318;23;20401;-82
2022/08/06 02:18:26;;;;;;;3.40;1.60;;;10.80;99.90;;;;;;6157025;23;20016;-81
2022/08/06 02:20:55;;;;;;;3.40;2.03;;;10.90;99.90;;;;;;6177368;23;20017;-82
2022/08/06 02:23:25;;;;;;;4.93;1.65;;;10.90;99.90;;;;;;6157374;23;20025;-81
2022/08/06 02:25:53;;;;;;;2.70;1.38;;;10.90;99.90;;;;;;6156324;23;20047;-81
2022/08/06 02:28:22;;;;;;;3.50;1.60;;;10.90;99.90;;;;;;6179227;23;20032;-81
2022/08/06 02:30:50;;;;;;;5.15;1.63;;;10.90;99.90;;;;;;6154162;23;20040;-82
2022/08/06 02:33:16;;;;;;;2.42;1.35;;;10.90;99.90;;;;;;6182903;23;20076;-82
2022/08/06 02:36:08;;;;;;;1.73;1.25;;;10.90;99.90;;;;;;6156533;23;20017;-82
2022/08/06 02:38:52;;;;;;;3.13;1.30;;;10.90;99.90;;;;;;6105817;23;20017;-81
2022/08/06 02:41:24;;;;;;;2.08;1.40;;;10.90;99.90;;;;;;6181643;23;20055;-82
2022/08/06 02:43:58;;;;;;;2.65;1.52;;;10.90;99.90;;;;;;6182568;23;20089;-82
2022/08/06 02:46:27;;;;;;;1.92;1.20;;;10.90;99.90;;;;;;6180727;23;20071;-82
2022/08/06 02:49:01;;;;;;;2.10;0.88;;;10.80;99.90;;;;;;6183077;23;20013;-82
2022/08/06 02:51:38;;;;;;;7.38;1.15;;;10.90;99.90;;;;;;6182548;23;20028;-82
2022/08/06 02:54:09;;;;;;;1.60;0.80;;;10.90;99.90;;;;;;6183429;23;20024;-81
2022/08/06 02:56:40;;;;;;;3.55;1.30;;;10.90;99.90;;;;;;6178702;23;20156;-81
2022/08/06 02:59:07;;;;;;;2.28;1.00;;;10.80;99.90;;;;;;6155603;23;20040;-82
2022/08/06 03:01:36;;;;;;;4.75;1.00;;;10.70;99.90;;;;;;6154479;23;20024;-82
2022/08/06 03:04:04;;;;;;;3.35;1.00;;;10.70;99.90;;;;;;6180819;23;20056;-81
2022/08/06 03:06:33;;;;;;;2.20;1.10;;;10.70;99.90;;;;;;6181900;23;20028;-81
2022/08/06 03:09:01;;;;;;;3.88;1.30;;;10.80;99.90;;;;;;6182390;23;20024;-82
2022/08/06 03:11:30;;;;;;;1.50;1.08;;;10.80;99.90;;;;;;6156394;23;20080;-82
2022/08/06 03:13:56;;;;;;;1.70;0.95;;;10.90;99.90;;;;;;6154608;23;20024;-82
2022/08/06 03:16:23;;;;;;;2.90;1.35;;;10.80;99.90;;;;;;6182567;23;20511;-82
2022/08/06 03:18:51;;;;;;;1.85;1.10;;;10.70;99.90;;;;;;6183890;23;20063;-82
2022/08/06 03:21:19;;;;;;;2.83;1.20;;;10.60;99.90;;;;;;6157516;23;20013;-82
2022/08/06 03:23:46;;;;;;;3.10;1.23;;;10.50;99.90;;;;;;6183178;23;20028;-82
2022/08/06 03:26:12;;;;;;;2.58;0.98;;;10.40;99.90;;;;;;6181760;23;20017;-82
2022/08/06 03:28:38;;;;;;;2.63;1.38;;;10.30;99.90;;;;;;6184413;23;20332;-82
2022/08/06 03:31:04;;;;;;;3.25;1.50;;;10.30;99.90;;;;;;6156036;23;20028;-82
2022/08/06 03:33:32;;;;;;;2.90;1.58;;;10.30;99.90;;;;;;6184778;23;20013;-82
2022/08/06 03:35:59;;;;;;;3.50;1.95;;;10.40;99.90;;;;;;6184152;23;20016;-82
2022/08/06 03:38:26;;;;;;;2.53;1.50;;;10.40;99.90;;;;;;6183144;23;20025;-82
2022/08/06 03:40:53;;;;;;;4.22;1.50;;;10.50;99.90;;;;;;6184055;23;20052;-82
2022/08/06 03:43:18;;;;;;;3.42;1.90;;;10.60;99.90;;;;;;6185069;23;20092;-81
2022/08/06 03:45:50;;;;;;;2.47;1.50;;;10.40;99.90;;;;;;6132599;23;20048;-82
2022/08/06 03:48:23;;;;;;;4.50;1.70;;;10.30;99.90;;;;;;6181633;23;20024;-82
2022/08/06 03:50:51;;;;;;;2.15;1.63;;;10.20;99.90;;;;;;6183434;23;20020;-81
2022/08/06 03:53:21;;;;;;;2.00;1.20;;;10.10;99.90;;;;;;6184262;23;20076;-82
2022/08/06 03:55:48;;;;;;;3.28;1.98;;;10.10;99.90;;;;;;6183506;23;20013;-81
2022/08/06 03:58:15;;;;;;;8.73;1.50;;;10.10;99.90;;;;;;6183218;23;20009;-81
2022/08/06 04:00:53;;;;;;;4.00;0.90;;;10.00;99.90;;;;;;6183170;23;20020;-81
2022/08/06 04:03:19;;;;;;;4.03;1.50;;;10.00;99.90;;;;;;6133635;23;20017;-82
2022/08/06 04:05:46;;;;;;;3.33;1.23;;;10.00;99.90;;;;;;6157635;23;20056;-80
2022/08/06 04:08:12;;;;;;;2.83;1.20;;;10.00;99.90;;;;;;6185089;23;20025;-82
2022/08/06 04:10:43;;;;;;;2.65;1.48;;;10.00;99.90;;;;;;6183134;23;20017;-82
2022/08/06 04:13:13;;;;;;;3.47;1.20;;;10.00;99.90;;;;;;6182093;23;20116;-81
2022/08/06 04:15:39;;;;;;;2.95;1.67;;;9.90;99.90;;;;;;6158467;23;20038;-82
2022/08/06 04:18:09;;;;;;;2.25;0.95;;;9.90;99.90;;;;;;6156971;23;20028;-82
2022/08/06 04:20:37;;;;;;;1.77;1.30;;;10.00;99.90;;;;;;6180404;23;20029;-82
2022/08/06 04:23:03;;;;;;;1.40;0.93;;;10.00;99.90;;;;;;6182688;23;20017;-82
2022/08/06 04:25:36;;;;;;;2.95;1.20;;;10.00;99.90;;;;;;6157281;23;20464;-82
2022/08/06 04:28:03;;;;;;;1.83;1.10;;;9.90;99.90;;;;;;6181852;23;20028;-81
2022/08/06 04:30:31;;;;;;;1.92;1.23;;;9.80;99.90;;;;;;6181823;23;20028;-82
2022/08/06 04:32:56;;;;;;;2.72;1.73;;;9.80;99.90;;;;;;6157724;23;20016;-82
2022/08/06 04:35:23;;;;;;;3.47;1.60;;;9.80;99.90;;;;;;6184210;23;20016;-82
2022/08/06 04:37:50;;;;;;;3.28;1.95;;;9.90;99.90;;;;;;6182461;23;20016;-82
2022/08/06 04:40:16;;;;;;;3.63;1.83;;;9.90;99.90;;;;;;6182018;23;20013;-82
2022/08/06 04:42:42;;;;;;;4.50;1.63;;;9.90;99.90;;;;;;6157279;23;20024;-82
2022/08/06 04:45:09;;;;;;;3.33;1.63;;;10.00;99.90;;;;;;6157628;23;20017;-82
2022/08/06 04:47:36;;;;;;;3.53;2.15;;;10.00;99.90;;;;;;6158162;23;20032;-81
2022/08/06 04:50:03;;;;;;;2.60;1.42;;;10.20;99.90;;;;;;6183522;23;20485;-82
2022/08/06 04:52:29;;;;;;;7.72;1.90;;;10.30;99.90;;;;;;6182883;23;20060;-82
2022/08/06 04:54:55;;;;;;;11.73;2.90;;;10.50;99.90;;;;;;6178811;23;20017;-82
2022/08/06 04:57:21;;;;;;;3.55;1.70;;;10.80;99.90;;;;;;6157749;23;20016;-82
2022/08/06 04:59:46;;;;;;;3.63;1.80;;;11.20;99.90;;;;;;6156478;23;20075;-82
2022/08/06 05:02:12;;;;;;;2.45;1.80;;;11.60;99.90;;;;;;6157565;23;20025;-82
2022/08/06 05:04:39;;;;;;;11.93;2.38;;;11.70;99.90;;;;;;6181252;23;20346;-82
2022/08/06 05:07:16;;;;;;;5.97;1.70;;;11.80;99.90;;;;;;6182201;23;20021;-81
2022/08/06 05:09:42;;;;;;;1.67;1.35;;;11.80;99.90;;;;;;6156157;23;20017;-81
2022/08/06 05:12:32;;;;;;;2.45;1.30;;;11.80;99.90;;;;;;6183330;23;20435;-81
2022/08/06 05:15:09;;;;;;;2.55;1.60;;;11.80;99.90;;;;;;6155734;23;20017;-82
2022/08/06 05:17:48;;;;;;;3.58;1.10;;;12.00;99.90;;;;;;6184616;23;20017;-82
2022/08/06 05:20:19;;;;;;;4.00;1.33;;;12.30;99.90;;;;;;6156297;23;20517;-81
2022/08/06 05:22:48;;;;;;;1.48;0.70;;;12.60;99.90;;;;;;6154150;23;20017;-81
2022/08/06 05:25:14;;;;;;;0.75;0.60;;;13.80;99.90;;;;;;6182439;23;20013;-81
2022/08/06 05:27:41;;;;;;;0.88;0.50;;;15.70;99.90;;;;;;6184443;23;20244;-83
2022/08/06 05:30:08;;;;;;;1.10;0.40;;;17.60;99.90;;;;;;6155216;23;20021;-82
2022/08/06 05:32:51;;;;;;;1.45;0.60;;;19.40;99.90;;;;;;6182560;23;20100;-82
2022/08/06 05:35:17;;;;;;;3.00;0.50;;;21.40;99.90;;;;;;6154569;23;20021;-82
2022/08/06 05:37:42;;;;;;;2.40;0.40;;;22.50;99.90;;;;;;6154787;23;20021;-82
2022/08/06 05:40:08;;;;;;;5.22;0.60;;;23.80;99.90;;;;;;6153412;23;20017;-82
2022/08/06 05:42:34;;;;;;;1.20;0.40;;;24.70;99.90;;;;;;6154706;23;20726;-82
2022/08/06 05:45:00;;;;;;;2.92;0.60;;;25.60;99.90;;;;;;6178318;23;20017;-82
2022/08/06 05:47:34;;;;;;;4.60;0.75;;;26.40;99.90;;;;;;6182346;23;20086;-82
2022/08/06 05:50:09;;;;;;;1.15;0.38;;;26.40;99.30;;;;;;6155024;23;20021;-82
2022/08/06 05:52:48;;;;;;;1.30;0.40;;;27.10;98.70;;;;;;6179701;23;20031;-83
2022/08/06 05:55:39;;;;;;;5.82;0.75;;;27.90;97.40;;;;;;6181119;23;20344;-82
2022/08/06 05:58:12;;;;;;;1.50;0.45;;;28.70;95.20;;;;;;6181649;23;20023;-82
2022/08/06 06:00:39;;;;;;;2.08;0.50;;;29.30;96.10;;;;;;6180218;23;20017;-82
2022/08/06 06:03:09;;;;;;;2.03;0.45;;;29.90;95.40;;;;;;6154461;23;20090;-82
2022/08/06 06:05:36;;;;;;;7.60;0.52;;;30.40;94.30;;;;;;6178685;23;20021;-83
2022/08/06 06:08:02;;;;;;;3.65;0.40;;;31.30;93.60;;;;;;6179988;23;20040;-82
2022/08/06 06:10:28;;;;;;;2.78;0.40;;;31.40;92.10;;;;;;6177604;23;20025;-83
2022/08/06 06:12:54;;;;;;;1.10;0.55;;;31.80;91.10;;;;;;6179359;23;20016;-82
2022/08/06 06:15:20;;;;;;;1.50;0.50;;;32.20;90.60;;;;;;6150592;23;20024;-83
2022/08/06 06:18:10;;;;;;;1.20;0.30;;;32.00;89.60;;;;;;6178228;23;20434;-83
2022/08/06 06:20:35;;;;;;;0.60;0.28;;;31.00;87.30;;;;;;6177727;23;20350;-83
2022/08/06 06:23:19;;;;;;;3.05;0.70;;;29.70;89.60;;;;;;6179823;23;20017;-83
2022/08/06 06:25:58;;;;;;;2.47;0.30;;;28.80;90.40;;;;;;6154592;23;20024;-83
2022/08/06 06:28:33;;;;;;;2.17;0.40;;;27.80;90.90;;;;;;6151311;23;20017;-83
2022/08/06 06:31:11;;;;;;;2.58;0.47;;;26.70;91.70;;;;;;6176220;23;20027;-82
2022/08/06 06:34:07;;;;;;;0.65;0.30;;;26.10;92.40;;;;;;6181460;23;20024;-82
2022/08/06 06:37:04;;;;;;;1.27;0.52;;;25.50;92.30;;;;;;6152994;23;20021;-82
2022/08/06 06:39:41;;;;;;;1.13;0.45;;;25.10;92.80;;;;;;6152661;23;20017;-82
2022/08/06 06:42:11;;;;;;;2.78;0.75;;;24.80;93.30;;;;;;6180110;23;20023;-82
2022/08/06 06:44:42;;;;;;;0.95;0.40;;;24.60;94.00;;;;;;6179466;23;20063;-82
2022/08/06 06:47:18;;;;;;;1.90;0.40;;;24.50;94.10;;;;;;6180309;23;20024;-82
2022/08/06 06:49:52;;;;;;;1.40;0.50;;;24.30;94.40;;;;;;6129833;23;20461;-82
2022/08/06 06:52:24;;;;;;;2.93;0.60;;;24.10;94.60;;;;;;6183022;23;20017;-82
2022/08/06 06:54:55;;;;;;;2.35;0.40;;;24.10;94.70;;;;;;6181392;23;20091;-83
2022/08/06 06:57:31;;;;;;;1.40;0.32;;;24.00;94.90;;;;;;6179690;23;20009;-83
2022/08/06 06:59:59;;;;;;;1.50;0.30;;;23.90;94.90;;;;;;6181423;23;20052;-83
2022/08/06 07:02:28;;;;;;;2.05;0.40;;;23.70;95.10;;;;;;6181918;23;20028;-83
2022/08/06 07:04:54;;;;;;;1.80;0.40;;;23.80;95.30;;;;;;6156759;23;20020;-82
2022/08/06 07:07:22;;;;;;;4.05;0.30;;;23.70;95.80;;;;;;6182252;23;20021;-83
2022/08/06 07:09:50;;;;;;;0.73;0.20;;;23.80;95.80;;;;;;6155253;23;20523;-82
2022/08/06 07:12:19;;;;;;;2.65;0.50;;;23.80;95.80;;;;;;6181454;23;20020;-82
2022/08/06 07:14:46;;;;;;;1.45;0.40;;;23.60;95.70;;;;;;6185102;23;20366;-81
2022/08/06 07:17:13;;;;;;;2.88;0.70;;;23.50;96.00;;;;;;6158005;23;20104;-83
2022/08/06 07:19:40;;;;;;;3.85;0.50;;;23.60;96.20;;;;;;6159077;23;20017;-81
2022/08/06 07:22:07;;;;;;;3.05;0.30;;;23.70;96.30;;;;;;6156625;23;20047;-80
2022/08/06 07:24:35;;;;;;;2.33;0.40;;;23.80;95.90;;;;;;6181929;23;20071;-80
2022/08/06 07:27:03;;;;;;;2.00;0.22;;;23.80;95.40;;;;;;6181950;23;20044;-83
2022/08/06 07:29:35;;;;;;;2.08;0.40;;;23.70;95.40;;;;;;6177751;23;20017;-84
2022/08/06 07:32:02;;;;;;;2.92;0.43;;;23.60;95.70;;;;;;6129371;23;20009;-84
2022/08/06 07:34:30;;;;;;;1.58;0.30;;;23.60;95.60;;;;;;6177305;23;20789;-82
2022/08/06 07:37:11;;;;;;;1.65;0.35;;;23.50;95.50;;;;;;6154682;23;20024;-81
2022/08/06 07:39:39;;;;;;;3.75;0.30;;;23.70;95.30;;;;;;6154781;23;20017;-80
2022/08/06 07:42:11;;;;;;;1.63;0.30;;;23.70;95.60;;;;;;6184231;23;20021;-81
2022/08/06 07:44:39;;;;;;;3.67;0.55;;;23.70;95.80;;;;;;6180286;23;20013;-82
2022/08/06 07:47:07;;;;;;;3.05;0.77;;;23.70;95.90;;;;;;6153961;23;20079;-81
2022/08/06 07:49:40;;;;;;;1.75;0.40;;;23.80;96.20;;;;;;6183993;23;20465;-80
2022/08/06 07:52:09;;;;;;;1.90;0.43;;;23.80;95.90;;;;;;6183796;23;20012;-82
2022/08/06 07:54:36;;;;;;;1.40;0.30;;;23.60;95.10;;;;;;6157754;23;20017;-81
2022/08/06 07:57:02;;;;;;;1.75;0.73;;;23.40;95.10;;;;;;6183214;23;20021;-81
2022/08/06 07:59:28;;;;;;;1.02;0.20;;;23.40;95.40;;;;;;6182057;23;20017;-81
2022/08/06 08:01:54;;;;;;;2.85;0.95;;;23.40;94.20;;;;;;6180913;23;20647;-82
2022/08/06 08:07:06;;;;;;;2.85;0.30;;;23.40;95.30;;;;;;6182585;23;20075;-82
2022/08/06 08:09:35;;;;;;;3.13;0.30;;;23.60;95.60;;;;;;6177781;23;20009;-82
2022/08/06 08:12:01;;;;;;;0.93;0.20;;;23.90;95.60;;;;;;6183032;23;20013;-81
2022/08/06 08:14:28;;;;;;;0.63;0.20;;;23.80;95.30;;;;;;6156591;23;20342;-79
2022/08/06 08:16:54;;;;;;;2.17;0.30;;;23.50;94.40;;;;;;6181423;23;20327;-81
2022/08/06 08:19:32;;;;;;;1.58;0.28;;;23.50;94.70;;;;;;6182951;23;20071;-82
2022/08/06 08:22:08;;;;;;;1.40;0.20;;;23.50;94.70;;;;;;6182764;23;20024;-82
2022/08/06 08:24:35;;;;;;;1.58;0.28;;;23.60;94.50;;;;;;6155423;23;20028;-81
2022/08/06 08:27:03;;;;;;;3.53;0.70;;;23.80;94.40;;;;;;6154871;23;20056;-81
2022/08/06 08:29:28;;;;;;;2.47;0.40;;;24.10;93.70;;;;;;6179746;23;20017;-81
2022/08/06 08:31:55;;;;;;;2.70;0.45;;;24.40;94.00;;;;;;6176598;23;20013;-81
2022/08/06 08:34:21;;;;;;;0.85;0.20;;;24.80;93.90;;;;;;6156498;23;20037;-81
2022/08/06 08:36:47;;;;;;;1.80;0.30;;;24.80;93.10;;;;;;6183461;23;20013;-82
2022/08/06 08:39:14;;;;;;;2.05;0.30;;;24.80;93.10;;;;;;6154905;23;20021;-81
2022/08/06 08:41:50;;;;;;;1.40;0.30;;;24.60;93.40;;;;;;6180149;23;20024;-80
2022/08/06 08:44:23;;;;;;;1.38;0.22;;;24.50;93.30;;;;;;6181182;23;20055;-79
2022/08/06 08:46:49;;;;;;;1.00;0.38;;;24.40;92.80;;;;;;6181095;23;20013;-77
2022/08/06 08:49:38;;;;;;;3.60;0.55;;;24.20;93.00;;;;;;6176815;23;20040;-79
2022/08/06 08:52:06;;;;;;;3.15;1.33;;;24.40;93.40;;;;;;6154863;23;20033;-80
2022/08/06 08:54:35;;;;;;;3.63;1.20;;;24.50;93.50;;;;;;6183070;23;20013;-77
2022/08/06 08:57:02;;;;;;;3.40;0.63;;;24.60;93.60;;;;;;6181950;23;20020;-79
2022/08/06 08:59:27;;;;;;;3.08;0.68;;;24.50;93.10;;;;;;6178906;23;20098;-78
2022/08/06 09:01:53;;;;;;;4.53;1.08;;;24.60;93.40;;;;;;6176813;23;20538;-77
2022/08/06 09:04:19;;;;;;;3.05;0.93;;;24.50;92.90;;;;;;6178330;23;20450;-80
2022/08/06 09:06:45;;;;;;;2.50;0.88;;;24.50;92.90;;;;;;6127530;23;20031;-81
2022/08/06 09:09:11;;;;;;;5.10;0.82;;;24.50;93.30;;;;;;6176821;23;20172;-81
2022/08/06 09:11:36;;;;;;;1.88;0.80;;;24.90;93.20;;;;;;6156200;23;20023;-81
2022/08/06 09:14:07;;;;;;;2.42;0.70;;;24.40;93.20;;;;;;6155438;23;20091;-81
2022/08/06 09:16:34;;;;;;;2.50;0.80;;;24.40;92.30;;;;;;6157602;23;20020;-81
2022/08/06 09:19:01;;;;;;;2.22;0.77;;;24.70;93.00;;;;;;6183495;23;20017;-81
2022/08/06 09:21:27;;;;;;;2.78;0.80;;;24.90;93.10;;;;;;6154765;23;20073;-81
2022/08/06 09:23:53;;;;;;;6.63;1.00;;;24.90;92.70;;;;;;6183641;23;20016;-81
2022/08/06 09:26:18;;;;;;;1.60;1.10;;;24.60;91.50;;;;;;6183502;23;20020;-81
2022/08/06 09:28:44;;;;;;;1.88;1.15;;;24.10;90.70;;;;;;6183277;23;20616;-81
2022/08/06 09:31:18;;;;;;;2.47;1.25;;;23.70;91.00;;;;;;6177546;23;20024;-82
2022/08/06 09:34:07;;;;;;;1.58;0.93;;;23.30;91.50;;;;;;6153721;23;20358;-82
2022/08/06 09:36:44;;;;;;;2.95;1.13;;;23.40;91.90;;;;;;6181041;23;20009;-81
2022/08/06 09:39:10;;;;;;;3.63;0.90;;;23.70;91.00;;;;;;6180671;23;20013;-81
2022/08/06 09:41:48;;;;;;;2.40;0.98;;;23.80;90.70;;;;;;6183399;23;20063;-80
2022/08/06 09:44:14;;;;;;;1.90;0.80;;;23.70;90.50;;;;;;6181279;23;20091;-80
2022/08/06 09:46:43;;;;;;;3.72;1.00;;;23.70;91.00;;;;;;6180864;23;20045;-79
2022/08/06 09:49:10;;;;;;;1.75;1.10;;;24.00;91.80;;;;;;6183347;23;20017;-80
2022/08/06 09:51:37;;;;;;;4.47;1.20;;;24.00;91.40;;;;;;6158809;23;20025;-80
2022/08/06 09:54:05;;;;;;;2.72;0.95;;;24.10;91.30;;;;;;6184173;23;20048;-80
2022/08/06 09:56:32;;;;;;;2.15;1.08;;;24.40;91.50;;;;;;6184994;23;20024;-81
2022/08/06 09:59:04;;;;;;;3.45;0.80;;;24.70;91.00;;;;;;6183461;23;20013;-78
2022/08/06 10:01:38;;;;;;;3.20;0.60;;;24.90;90.20;;;;;;6156418;23;20092;-80
2022/08/06 10:04:04;;;;;;;2.13;1.05;;;25.00;88.50;;;;;;6183090;23;20021;-80
2022/08/06 10:06:30;;;;;;;3.35;1.23;;;25.00;89.70;;;;;;6156446;23;20032;-80
2022/08/06 10:09:12;;;;;;;1.88;0.82;;;24.90;90.40;;;;;;6181230;23;20025;-81
2022/08/06 10:11:40;;;;;;;2.25;0.90;;;24.80;86.50;;;;;;6179983;23;20083;-80
2022/08/06 10:14:21;;;;;;;1.85;0.75;;;24.50;89.10;;;;;;6182884;23;20017;-79
2022/08/06 10:17:13;;;;;;;2.92;0.90;;;24.20;89.60;;;;;;6151086;23;20474;-80
2022/08/06 10:19:41;;;;;;;2.33;0.68;;;23.90;90.10;;;;;;6175534;23;20052;-79
2022/08/06 10:22:12;;;;;;;1.48;0.93;;;23.40;90.40;;;;;;6177707;23;20350;-82
2022/08/06 10:28:14;;;;;;;3.25;1.23;;;22.90;91.50;;;;;;6177331;23;20033;-78
2022/08/06 10:30:40;;;;;;;3.05;0.80;;;22.70;92.00;;;;;;6175942;23;20021;-79
2022/08/06 10:33:08;;;;;;;2.65;0.90;;;22.70;92.20;;;;;;6178276;23;20023;-79
2022/08/06 10:35:35;;;;;;;2.17;0.95;;;22.70;92.10;;;;;;6176621;23;20009;-81
2022/08/06 10:38:04;;;;;;;1.15;0.93;;;22.60;92.40;;;;;;6177223;23;20017;-81
2022/08/06 10:40:34;;;;;;;2.42;0.95;;;22.60;92.20;;;;;;6152165;23;20074;-81
2022/08/06 10:43:03;;;;;;;2.08;0.68;;;22.70;92.20;;;;;;6152086;23;20028;-81
2022/08/06 10:45:30;;;;;;;1.17;0.50;;;22.70;92.40;;;;;;6175445;23;20092;-80
2022/08/06 10:47:56;;;;;;;13.25;1.15;;;22.90;92.20;;;;;;6151939;23;20454;-80
2022/08/06 10:50:22;;;;;;;2.97;1.02;;;23.20;92.30;;;;;;6177143;23;20013;-81
2022/08/06 10:52:49;;;;;;;3.20;0.75;;;23.90;91.40;;;;;;6126967;23;20013;-81
2022/08/06 10:55:14;;;;;;;0.85;0.65;;;24.00;90.90;;;;;;6152698;23;20021;-81
2022/08/06 10:57:41;;;;;;;3.13;0.80;;;23.80;90.80;;;;;;6178593;23;20028;-81
2022/08/06 11:00:08;;;;;;;2.05;0.70;;;23.70;90.70;;;;;;6151976;23;20520;-81
2022/08/06 11:02:58;;;;;;;1.00;0.70;;;23.50;90.60;;;;;;6179133;23;20614;-81
2022/08/06 11:05:37;;;;;;;2.15;0.73;;;23.20;90.70;;;;;;6151866;23;20022;-80
2022/08/06 11:08:17;;;;;;;1.80;0.60;;;23.00;90.80;;;;;;6179436;23;20020;-78
2022/08/06 11:11:01;;;;;;;4.00;0.68;;;22.90;90.60;;;;;;6151678;23;20092;-81
2022/08/06 11:13:48;;;;;;;2.10;0.57;;;22.80;90.40;;;;;;6178603;23;20812;-80
2022/08/06 11:16:28;;;;;;;4.75;1.27;;;22.70;90.60;;;;;;6149083;23;20024;-79
2022/08/06 11:19:06;;;;;;;1.27;0.60;;;22.50;90.50;;;;;;6177838;23;20013;-80
2022/08/06 11:21:41;;;;;;;1.10;0.68;;;22.50;90.90;;;;;;6150367;23;20100;-80
2022/08/06 11:24:07;;;;;;;7.88;1.15;;;22.40;90.80;;;;;;6175772;23;20047;-81
2022/08/06 11:26:40;;;;;;;2.22;0.65;;;22.40;91.10;;;;;;6178357;23;20511;-82
2022/08/06 11:29:07;;;;;;;1.65;0.70;;;22.30;91.10;;;;;;6173200;23;20761;-80
2022/08/06 11:31:38;;;;;;;1.80;0.85;;;22.30;91.30;;;;;;6176927;23;20060;-81
2022/08/06 11:34:13;;;;;;;2.15;0.70;;;22.20;91.30;;;;;;6175249;23;20028;-82
2022/08/06 11:36:59;;;;;;;1.83;0.65;;;22.20;91.70;;;;;;6177285;23;20017;-78
2022/08/06 11:39:27;;;;;;;2.78;0.77;;;22.20;92.50;;;;;;6181333;23;20243;-81
2022/08/06 11:41:56;;;;;;;1.50;0.68;;;22.30;92.00;;;;;;6154501;23;20375;-82
2022/08/06 11:44:36;;;;;;;0.57;0.40;;;22.30;91.90;;;;;;6152277;23;20020;-82
2022/08/06 11:51:36;;;;;;;0.90;0.50;;;22.30;92.40;;;;;;6137840;23;20031;-82
2022/08/06 11:54:17;;;;;;;2.28;0.60;;;22.40;92.70;;;;;;6150609;23;20439;-80
2022/08/06 11:57:01;;;;;;;1.75;0.90;;;22.50;92.80;;;;;;6155037;23;20051;-80
2022/08/06 12:00:02;;;;;;;2.55;0.75;;;22.60;92.70;;;;;;6158491;23;20327;-82
2022/08/06 12:02:58;;;;;;;5.20;0.88;;;22.80;92.80;;;;;;6181388;23;20075;-81
2022/08/06 12:05:27;;;;;;;1.58;0.65;;;22.90;92.80;;;;;;6152979;23;20024;-80
2022/08/06 12:08:18;;;;;;;1.85;0.98;;;22.90;92.80;;;;;;6152844;23;20017;-81
2022/08/06 12:11:23;;;;;;;3.33;0.70;;;23.10;92.60;;;;;;6178459;23;20017;-80
2022/08/06 12:13:52;;;;;;;1.13;0.70;;;23.40;92.60;;;;;;6151472;23;20024;-79
2022/08/06 12:16:30;;;;;;;3.45;1.02;;;23.50;92.60;;;;;;6152268;23;20561;-80
2022/08/06 12:18:59;;;;;;;2.45;0.93;;;23.50;92.20;;;;;;6152073;23;20028;-81
2022/08/06 12:21:25;;;;;;;2.83;1.10;;;23.60;92.50;;;;;;6153239;23;20031;-79
2022/08/06 12:23:52;;;;;;;2.00;0.80;;;23.60;91.50;;;;;;6182772;23;20024;-79
2022/08/06 12:26:19;;;;;;;1.77;0.65;;;23.60;90.20;;;;;;6185885;23;20020;-80
2022/08/06 12:28:46;;;;;;;1.65;0.70;;;23.50;90.20;;;;;;6183238;23;20021;-80
2022/08/06 12:31:12;;;;;;;1.52;0.80;;;23.40;90.20;;;;;;6184399;23;20029;-78
2022/08/06 12:33:41;;;;;;;2.90;1.00;;;23.30;90.40;;;;;;6183504;23;20033;-79
2022/08/06 12:36:08;;;;;;;2.10;0.95;;;23.10;90.00;;;;;;6159005;23;20013;-80
2022/08/06 12:38:34;;;;;;;2.25;1.13;;;22.80;90.20;;;;;;6156668;23;20017;-79
2022/08/06 12:41:06;;;;;;;2.50;1.20;;;22.70;90.40;;;;;;6157798;23;20013;-78
2022/08/06 12:43:34;;;;;;;2.40;0.90;;;22.50;90.50;;;;;;6183404;23;20017;-79
2022/08/06 12:46:05;;;;;;;2.42;1.35;;;22.40;90.60;;;;;;6184240;23;20017;-79
2022/08/06 12:48:33;;;;;;;2.58;1.48;;;22.30;91.30;;;;;;6182630;23;20450;-80
2022/08/06 12:51:06;;;;;;;2.83;1.10;;;22.30;91.30;;;;;;6157264;23;20021;-80
2022/08/06 12:53:36;;;;;;;1.30;0.88;;;22.20;91.50;;;;;;6159456;23;20020;-80
2022/08/06 12:56:03;;;;;;;2.25;1.33;;;22.10;91.90;;;;;;6180193;23;20013;-79
2022/08/06 12:58:37;;;;;;;3.40;1.38;;;22.10;92.20;;;;;;6183745;23;20024;-80
2022/08/06 13:01:05;;;;;;;1.20;0.82;;;22.10;92.00;;;;;;6181820;23;20028;-78
2022/08/06 13:03:33;;;;;;;1.90;1.10;;;22.10;92.00;;;;;;6182941;23;20036;-79
2022/08/06 13:06:01;;;;;;;1.17;1.02;;;22.30;92.00;;;;;;6183579;23;20017;-80
2022/08/06 13:08:28;;;;;;;4.50;1.40;;;22.50;92.50;;;;;;6182971;23;20498;-79
2022/08/06 13:10:55;;;;;;;2.40;0.85;;;22.70;92.00;;;;;;6156754;23;20031;-80
2022/08/06 13:13:33;;;;;;;2.72;0.98;;;23.00;91.40;;;;;;6184645;23;20021;-78
2022/08/06 13:16:04;;;;;;;3.70;0.95;;;23.20;90.80;;;;;;6179933;23;20649;-80